createdAt,value
2018-07-08T00:03:43.027Z,1.90
2018-07-08T00:08:46.666Z,2.43
2018-07-08T00:13:49.543Z,2.43
2018-07-08T00:18:52.693Z,2.63
2018-07-08T00:23:55.717Z,2.43
2018-07-08T00:28:58.775Z,2.73
2018-07-08T00:34:09.024Z,2.90
2018-07-08T00:39:15.047Z,2.43
2018-07-08T00:44:18.738Z,2.77
2018-07-08T00:49:21.963Z,2.30
2018-07-08T00:54:25.053Z,2.60
2018-07-08T00:59:28.148Z,2.50
2018-07-08T01:04:31.181Z,3.00
2018-07-08T01:09:34.224Z,2.50
2018-07-08T01:14:37.313Z,2.60
2018-07-08T01:19:40.486Z,2.63
2018-07-08T01:24:43.537Z,2.60
2018-07-08T01:29:46.571Z,2.87
2018-07-08T01:34:49.619Z,2.70
2018-07-08T01:39:52.676Z,2.87
2018-07-08T01:44:55.734Z,2.40
2018-07-08T01:49:58.789Z,2.90
2018-07-08T01:55:01.849Z,3.30
2018-07-08T02:00:05.757Z,3.00
2018-07-08T02:05:09.205Z,3.37
2018-07-08T02:10:12.409Z,2.50
2018-07-08T02:15:15.390Z,3.27
2018-07-08T02:20:18.659Z,2.83
2018-07-08T02:25:22.180Z,2.90
2018-07-08T02:30:34.553Z,4.80
2018-07-08T02:35:38.898Z,4.03
2018-07-08T02:40:42.946Z,4.00
2018-07-08T02:45:46.029Z,3.10
2018-07-08T02:50:49.389Z,3.33
2018-07-08T02:55:52.681Z,3.67
2018-07-08T03:00:55.895Z,4.57
2018-07-08T03:05:59.007Z,3.60
2018-07-08T03:11:02.147Z,3.87
2018-07-08T03:16:05.883Z,3.00
2018-07-08T03:21:09.787Z,3.83
2018-07-08T03:26:12.833Z,3.47
2018-07-08T03:31:16.097Z,3.93
2018-07-08T03:36:19.145Z,3.53
2018-07-08T03:41:22.185Z,3.43
2018-07-08T03:46:25.242Z,4.20
2018-07-08T03:51:37.965Z,5.80
2018-07-08T03:56:41.165Z,3.90
2018-07-08T04:01:44.203Z,3.67
2018-07-08T04:06:47.249Z,4.13
2018-07-08T04:11:50.288Z,4.60
2018-07-08T04:17:06.729Z,4.27
2018-07-08T04:27:34.346Z,4.20
2018-07-08T04:32:37.445Z,4.17
2018-07-08T04:37:40.777Z,4.37
2018-07-08T04:42:43.813Z,4.43
2018-07-08T04:47:46.866Z,5.00
2018-07-08T04:52:50.481Z,4.10
2018-07-08T04:57:53.504Z,4.23
2018-07-08T05:02:56.560Z,4.30
2018-07-08T05:07:59.616Z,5.03
2018-07-08T05:13:02.671Z,4.73
2018-07-08T05:18:05.958Z,4.60
2018-07-08T05:23:33.578Z,5.30
2018-07-08T05:28:36.716Z,4.00
2018-07-08T05:33:39.729Z,4.40
2018-07-08T05:38:42.879Z,3.80
2018-07-08T05:43:46.703Z,4.03
2018-07-08T05:48:49.761Z,3.80
2018-07-08T05:53:52.825Z,4.17
2018-07-08T05:58:55.897Z,4.03
2018-07-08T06:04:14.604Z,4.30
2018-07-08T06:09:17.781Z,4.03
2018-07-08T06:14:20.837Z,4.57
2018-07-08T06:19:23.897Z,3.57
2018-07-08T06:24:28.101Z,2.87
2018-07-08T06:29:31.178Z,4.17
2018-07-08T06:34:34.577Z,3.50
2018-07-08T06:39:37.621Z,3.30
2018-07-08T06:44:40.673Z,3.03
2018-07-08T06:49:45.769Z,3.30
2018-07-08T06:54:48.825Z,2.70
2018-07-08T06:59:51.877Z,2.73
2018-07-08T07:04:54.933Z,2.70
2018-07-08T07:09:58.149Z,2.40
2018-07-08T07:15:01.205Z,2.77
2018-07-08T07:20:04.282Z,2.97
2018-07-08T07:25:08.016Z,2.37
2018-07-08T07:30:11.053Z,2.17
2018-07-08T07:35:14.105Z,2.43
2018-07-08T07:40:17.209Z,1.90
2018-07-08T07:45:20.253Z,1.87
2018-07-08T07:50:23.301Z,2.30
2018-07-08T07:55:26.341Z,1.90
2018-07-08T08:00:29.410Z,1.67
2018-07-08T08:05:32.449Z,1.63
2018-07-08T08:10:35.487Z,1.50
2018-07-08T08:15:38.528Z,1.60
2018-07-08T08:20:41.616Z,1.70
2018-07-08T08:25:44.677Z,1.53
2018-07-08T08:30:47.721Z,1.60
2018-07-08T08:35:50.762Z,1.47
2018-07-08T08:40:53.804Z,1.57
2018-07-08T08:45:56.898Z,1.90
2018-07-08T08:50:59.897Z,1.80
2018-07-08T08:56:09.833Z,1.70
2018-07-08T09:01:12.885Z,1.50
2018-07-08T09:06:15.936Z,1.60
2018-07-08T09:11:18.989Z,1.50
2018-07-08T09:16:22.092Z,1.43
2018-07-08T09:21:25.136Z,1.27
2018-07-08T09:26:28.181Z,1.50
2018-07-08T09:31:31.233Z,1.57
2018-07-08T09:36:34.553Z,1.80
2018-07-08T09:41:37.992Z,1.50
2018-07-08T09:46:41.921Z,1.27
2018-07-08T09:51:45.441Z,1.40
2018-07-08T09:56:48.509Z,1.80
2018-07-08T10:01:51.565Z,1.20
2018-07-08T10:06:54.923Z,1.40
2018-07-08T10:11:58.039Z,1.10
2018-07-08T10:17:02.234Z,1.43
2018-07-08T10:22:05.389Z,1.20
2018-07-08T10:27:22.618Z,1.20
2018-07-08T10:32:25.700Z,1.30
2018-07-08T10:37:28.769Z,1.00
2018-07-08T10:42:31.849Z,1.67
2018-07-08T10:47:35.067Z,0.97
2018-07-08T10:52:38.129Z,1.30
2018-07-08T10:57:41.336Z,1.13
2018-07-08T11:02:44.425Z,1.10
2018-07-08T11:07:47.471Z,1.20
2018-07-08T11:12:50.569Z,1.00
2018-07-08T11:17:54.705Z,0.90
2018-07-08T11:22:57.777Z,1.03
2018-07-08T11:28:00.834Z,1.13
2018-07-08T11:33:03.977Z,1.30
2018-07-08T11:38:07.421Z,1.30
2018-07-08T11:43:10.514Z,1.20
2018-07-08T11:48:13.566Z,1.57
2018-07-08T11:53:17.509Z,0.90
2018-07-08T11:58:20.592Z,1.33
2018-07-08T12:03:23.761Z,1.30
2018-07-08T12:08:26.852Z,1.30
2018-07-08T12:13:29.945Z,5.90
2018-07-08T12:18:33.013Z,4.73
2018-07-08T12:23:39.018Z,1.00
2018-07-08T12:28:42.061Z,1.30
2018-07-08T12:33:45.127Z,1.00
2018-07-08T12:38:48.269Z,0.70
2018-07-08T12:43:51.321Z,0.80
2018-07-08T12:48:54.445Z,0.80
2018-07-08T12:53:57.497Z,1.23
2018-07-08T12:59:01.612Z,0.73
2018-07-08T13:04:04.687Z,1.10
2018-07-08T13:09:07.728Z,0.67
2018-07-08T13:14:11.813Z,0.83
2018-07-08T13:19:14.872Z,0.80
2018-07-08T13:24:17.933Z,0.90
2018-07-08T13:29:22.769Z,1.17
2018-07-08T13:34:27.296Z,1.00
2018-07-08T13:39:30.377Z,1.03
2018-07-08T13:44:33.545Z,1.10
2018-07-08T13:49:36.607Z,1.10
2018-07-08T13:54:39.764Z,0.97
2018-07-08T13:59:42.823Z,1.23
2018-07-08T14:04:46.069Z,1.00
2018-07-08T14:09:49.144Z,1.07
2018-07-08T14:14:52.189Z,1.03
2018-07-08T14:19:55.257Z,0.90
2018-07-08T14:24:58.302Z,0.70
2018-07-08T14:30:01.376Z,0.70
2018-07-08T14:35:04.429Z,1.17
2018-07-08T14:40:07.485Z,0.90
2018-07-08T14:45:10.538Z,1.00
2018-07-08T14:50:13.589Z,1.07
2018-07-08T14:55:16.629Z,1.00
2018-07-08T15:00:19.692Z,1.00
2018-07-08T15:05:22.747Z,1.10
2018-07-08T15:10:25.789Z,1.00
2018-07-08T15:15:28.918Z,0.90
2018-07-08T15:20:31.897Z,0.90
2018-07-08T15:25:35.140Z,1.10
2018-07-08T15:30:38.297Z,1.00
2018-07-08T15:35:41.858Z,1.00
2018-07-08T15:40:44.905Z,1.07
2018-07-08T15:45:48.969Z,1.00
2018-07-08T15:50:52.019Z,1.07
2018-07-08T15:55:55.107Z,1.23
2018-07-08T16:00:58.205Z,1.07
2018-07-08T16:06:02.351Z,1.20
2018-07-08T16:11:05.574Z,1.30
2018-07-08T16:16:08.628Z,1.10
2018-07-08T16:21:11.701Z,1.00
2018-07-08T16:26:14.761Z,1.20
2018-07-08T16:31:18.025Z,1.10
2018-07-08T16:36:21.326Z,1.33
2018-07-08T16:41:24.572Z,1.37
2018-07-08T16:46:27.654Z,1.00
2018-07-08T16:51:30.693Z,0.90
2018-07-08T16:56:33.766Z,1.43
2018-07-08T17:01:36.813Z,1.20
2018-07-08T17:06:39.873Z,1.33
2018-07-08T17:11:42.928Z,4.73
2018-07-08T17:16:45.994Z,1.20
2018-07-08T17:21:49.070Z,1.30
2018-07-08T17:26:52.421Z,1.30
2018-07-08T17:31:55.817Z,0.80
2018-07-08T17:36:58.866Z,0.90
2018-07-08T17:42:01.941Z,0.90
2018-07-08T17:47:06.075Z,1.50
2018-07-08T17:52:09.239Z,1.40
2018-07-08T17:57:12.296Z,1.20
2018-07-08T18:02:15.349Z,1.23
2018-07-08T18:07:18.550Z,1.20
2018-07-08T18:12:21.605Z,1.40
2018-07-08T18:17:24.790Z,1.20
2018-07-08T18:22:29.572Z,1.00
2018-07-08T18:27:32.633Z,1.00
2018-07-08T18:32:35.801Z,1.50
2018-07-08T18:37:38.857Z,1.50
2018-07-08T18:42:41.893Z,1.37
2018-07-08T18:47:45.015Z,1.47
2018-07-08T18:52:48.057Z,1.00
2018-07-08T18:57:51.210Z,1.30
2018-07-08T19:02:54.258Z,1.30
2018-07-08T19:07:57.312Z,1.20
2018-07-08T19:13:00.365Z,1.10
2018-07-08T19:18:03.474Z,1.00
2018-07-08T19:23:06.488Z,1.50
2018-07-08T19:28:09.536Z,1.10
2018-07-08T19:33:12.605Z,1.27
2018-07-08T19:38:15.709Z,1.40
2018-07-08T19:43:18.819Z,1.10
2018-07-08T19:48:21.864Z,1.07
2018-07-08T19:53:24.908Z,1.10
2018-07-08T19:58:28.021Z,1.60
2018-07-08T20:03:32.149Z,1.13
2018-07-08T20:08:35.249Z,1.10
2018-07-08T20:13:38.305Z,1.13
2018-07-08T20:18:41.374Z,1.20
2018-07-08T20:23:44.431Z,1.00
2018-07-08T20:28:47.501Z,1.20
2018-07-08T20:33:50.545Z,1.30
2018-07-08T20:38:53.606Z,1.20
2018-07-08T20:43:56.662Z,1.37
2018-07-08T20:48:59.717Z,1.47
2018-07-08T20:54:02.756Z,1.07
2018-07-08T20:59:05.981Z,1.27
2018-07-08T21:04:09.054Z,1.10
2018-07-08T21:09:12.109Z,1.20
2018-07-08T21:14:15.153Z,1.40
2018-07-08T21:19:18.185Z,1.40
2018-07-08T21:24:21.237Z,0.90
2018-07-08T21:29:24.269Z,1.40
2018-07-08T21:34:27.317Z,1.37
2018-07-08T21:39:30.410Z,1.20
2018-07-08T21:44:33.465Z,2.67
2018-07-08T21:49:36.537Z,2.07
2018-07-08T21:54:39.578Z,1.30
2018-07-08T21:59:42.620Z,2.23
2018-07-08T22:04:45.721Z,1.20
2018-07-08T22:09:48.765Z,1.60
2018-07-08T22:14:51.809Z,1.80
2018-07-08T22:19:54.857Z,2.00
2018-07-08T22:24:57.901Z,1.87
2018-07-08T22:30:00.957Z,1.70
2018-07-08T22:35:04.002Z,2.53
2018-07-08T22:40:07.332Z,1.57
2018-07-08T22:45:10.389Z,2.13
2018-07-08T22:50:13.420Z,1.90
2018-07-08T22:55:16.461Z,1.87
2018-07-08T23:00:30.884Z,2.00
2018-07-08T23:05:33.928Z,2.10
2018-07-08T23:10:36.978Z,2.00
2018-07-08T23:15:40.028Z,2.13
2018-07-08T23:20:43.070Z,2.57
2018-07-08T23:25:46.159Z,2.23
2018-07-08T23:30:49.195Z,2.00
2018-07-08T23:35:52.241Z,1.90
2018-07-08T23:40:55.277Z,2.40
2018-07-08T23:45:58.453Z,2.10
2018-07-08T23:51:01.504Z,2.20
2018-07-08T23:56:04.558Z,2.40
